sensor_id;sensor_type;location;lat;lon;timestamp;temperature;humidity
39483;DHT22;25682;48.438;1.482;2022-08-01T00:01:40;27.40;51.80
39483;DHT22;25682;48.438;1.482;2022-08-01T00:04:05;27.30;51.80
39483;DHT22;25682;48.438;1.482;2022-08-01T00:06:31;27.40;51.80
39483;DHT22;25682;48.438;1.482;2022-08-01T00:08:57;27.30;51.80
39483;DHT22;25682;48.438;1.482;2022-08-01T00:11:22;27.30;51.80
39483;DHT22;25682;48.438;1.482;2022-08-01T00:13:48;27.30;51.80
39483;DHT22;25682;48.438;1.482;2022-08-01T00:16:13;27.30;51.80
39483;DHT22;25682;48.438;1.482;2022-08-01T00:18:39;27.30;51.80
39483;DHT22;25682;48.438;1.482;2022-08-01T00:21:05;27.30;51.80
39483;DHT22;25682;48.438;1.482;2022-08-01T00:23:31;27.30;51.80
39483;DHT22;25682;48.438;1.482;2022-08-01T00:25:56;27.30;51.90
39483;DHT22;25682;48.438;1.482;2022-08-01T00:28:22;27.30;51.90
39483;DHT22;25682;48.438;1.482;2022-08-01T00:30:48;27.30;51.90
39483;DHT22;25682;48.438;1.482;2022-08-01T00:33:13;27.30;51.90
39483;DHT22;25682;48.438;1.482;2022-08-01T00:35:39;27.20;51.80
39483;DHT22;25682;48.438;1.482;2022-08-01T00:38:04;27.20;51.90
39483;DHT22;25682;48.438;1.482;2022-08-01T00:40:30;27.20;51.90
39483;DHT22;25682;48.438;1.482;2022-08-01T00:42:56;27.20;51.90
39483;DHT22;25682;48.438;1.482;2022-08-01T00:45:21;27.20;52.00
39483;DHT22;25682;48.438;1.482;2022-08-01T00:47:47;27.20;52.00
39483;DHT22;25682;48.438;1.482;2022-08-01T00:50:13;27.20;52.00
39483;DHT22;25682;48.438;1.482;2022-08-01T00:52:40;27.20;52.00
39483;DHT22;25682;48.438;1.482;2022-08-01T00:55:06;27.10;51.90
39483;DHT22;25682;48.438;1.482;2022-08-01T00:57:33;27.20;52.00
39483;DHT22;25682;48.438;1.482;2022-08-01T00:59:58;27.20;52.00
39483;DHT22;25682;48.438;1.482;2022-08-01T01:02:24;27.20;52.00
39483;DHT22;25682;48.438;1.482;2022-08-01T01:04:50;27.10;51.90
39483;DHT22;25682;48.438;1.482;2022-08-01T01:07:44;27.10;52.00
39483;DHT22;25682;48.438;1.482;2022-08-01T01:10:22;27.10;52.60
39483;DHT22;25682;48.438;1.482;2022-08-01T01:12:55;27.10;52.00
39483;DHT22;25682;48.438;1.482;2022-08-01T01:15:32;27.10;52.10
39483;DHT22;25682;48.438;1.482;2022-08-01T01:18:09;27.10;52.10
39483;DHT22;25682;48.438;1.482;2022-08-01T01:20:44;27.10;52.10
39483;DHT22;25682;48.438;1.482;2022-08-01T01:26:29;27.00;52.10
39483;DHT22;25682;48.438;1.482;2022-08-01T01:29:00;27.00;52.20
39483;DHT22;25682;48.438;1.482;2022-08-01T01:31:28;27.00;52.30
39483;DHT22;25682;48.438;1.482;2022-08-01T01:33:56;27.00;52.30
39483;DHT22;25682;48.438;1.482;2022-08-01T01:36:24;27.00;52.30
39483;DHT22;25682;48.438;1.482;2022-08-01T01:38:52;27.00;52.40
39483;DHT22;25682;48.438;1.482;2022-08-01T01:41:18;27.00;52.40
39483;DHT22;25682;48.438;1.482;2022-08-01T01:43:46;27.00;52.40
39483;DHT22;25682;48.438;1.482;2022-08-01T01:46:15;27.00;52.40
39483;DHT22;25682;48.438;1.482;2022-08-01T01:48:44;27.00;52.40
39483;DHT22;25682;48.438;1.482;2022-08-01T01:51:12;26.90;52.40
39483;DHT22;25682;48.438;1.482;2022-08-01T01:53:39;26.90;52.40
39483;DHT22;25682;48.438;1.482;2022-08-01T01:56:06;26.90;52.40
39483;DHT22;25682;48.438;1.482;2022-08-01T01:58:36;26.90;52.50
39483;DHT22;25682;48.438;1.482;2022-08-01T02:01:04;26.90;52.50
39483;DHT22;25682;48.438;1.482;2022-08-01T02:03:33;26.90;52.60
39483;DHT22;25682;48.438;1.482;2022-08-01T02:06:02;26.90;52.60
39483;DHT22;25682;48.438;1.482;2022-08-01T02:08:29;26.90;52.60
39483;DHT22;25682;48.438;1.482;2022-08-01T02:10:57;26.90;52.60
39483;DHT22;25682;48.438;1.482;2022-08-01T02:13:42;26.90;52.60
39483;DHT22;25682;48.438;1.482;2022-08-01T02:16:08;26.90;52.70
39483;DHT22;25682;48.438;1.482;2022-08-01T02:18:37;26.90;52.70
39483;DHT22;25682;48.438;1.482;2022-08-01T02:21:05;26.90;52.70
39483;DHT22;25682;48.438;1.482;2022-08-01T02:23:34;26.90;52.80
39483;DHT22;25682;48.438;1.482;2022-08-01T02:26:03;26.80;53.50
39483;DHT22;25682;48.438;1.482;2022-08-01T02:28:41;26.80;52.90
39483;DHT22;25682;48.438;1.482;2022-08-01T02:31:12;26.80;53.00
39483;DHT22;25682;48.438;1.482;2022-08-01T02:33:43;26.80;53.00
39483;DHT22;25682;48.438;1.482;2022-08-01T02:36:10;26.80;53.10
39483;DHT22;25682;48.438;1.482;2022-08-01T02:38:41;26.80;53.20
39483;DHT22;25682;48.438;1.482;2022-08-01T02:41:11;26.80;53.20
39483;DHT22;25682;48.438;1.482;2022-08-01T02:43:42;26.70;53.30
39483;DHT22;25682;48.438;1.482;2022-08-01T02:46:16;26.70;53.30
39483;DHT22;25682;48.438;1.482;2022-08-01T02:48:43;26.70;53.30
39483;DHT22;25682;48.438;1.482;2022-08-01T02:51:10;26.70;53.30
39483;DHT22;25682;48.438;1.482;2022-08-01T02:53:38;26.70;53.40
39483;DHT22;25682;48.438;1.482;2022-08-01T02:56:05;26.70;53.40
39483;DHT22;25682;48.438;1.482;2022-08-01T02:58:33;26.70;53.40
39483;DHT22;25682;48.438;1.482;2022-08-01T03:01:01;26.70;53.40
39483;DHT22;25682;48.438;1.482;2022-08-01T03:03:27;26.60;53.40
39483;DHT22;25682;48.438;1.482;2022-08-01T03:05:53;26.70;53.50
39483;DHT22;25682;48.438;1.482;2022-08-01T03:08:20;26.60;53.50
39483;DHT22;25682;48.438;1.482;2022-08-01T03:10:46;26.60;53.50
39483;DHT22;25682;48.438;1.482;2022-08-01T03:13:14;26.60;53.50
39483;DHT22;25682;48.438;1.482;2022-08-01T03:15:42;26.60;54.10
39483;DHT22;25682;48.438;1.482;2022-08-01T03:18:09;26.60;53.60
39483;DHT22;25682;48.438;1.482;2022-08-01T03:20:36;26.60;53.60
39483;DHT22;25682;48.438;1.482;2022-08-01T03:23:05;26.50;53.60
39483;DHT22;25682;48.438;1.482;2022-08-01T03:25:32;26.60;53.70
39483;DHT22;25682;48.438;1.482;2022-08-01T03:28:03;26.60;53.70
39483;DHT22;25682;48.438;1.482;2022-08-01T03:30:30;26.60;53.60
39483;DHT22;25682;48.438;1.482;2022-08-01T03:32:56;26.60;53.60
39483;DHT22;25682;48.438;1.482;2022-08-01T03:35:27;26.50;53.60
39483;DHT22;25682;48.438;1.482;2022-08-01T03:37:54;26.60;53.70
39483;DHT22;25682;48.438;1.482;2022-08-01T03:40:28;26.60;53.70
39483;DHT22;25682;48.438;1.482;2022-08-01T03:43:21;26.50;53.70
39483;DHT22;25682;48.438;1.482;2022-08-01T03:45:51;26.50;53.90
39483;DHT22;25682;48.438;1.482;2022-08-01T03:48:18;26.50;53.80
39483;DHT22;25682;48.438;1.482;2022-08-01T03:50:47;26.50;53.90
39483;DHT22;25682;48.438;1.482;2022-08-01T03:53:14;26.50;53.90
39483;DHT22;25682;48.438;1.482;2022-08-01T03:55:42;26.50;53.90
39483;DHT22;25682;48.438;1.482;2022-08-01T03:58:09;26.50;53.90
39483;DHT22;25682;48.438;1.482;2022-08-01T04:00:36;26.50;53.90
39483;DHT22;25682;48.438;1.482;2022-08-01T04:03:06;26.50;53.90
39483;DHT22;25682;48.438;1.482;2022-08-01T04:05:32;26.50;54.00
39483;DHT22;25682;48.438;1.482;2022-08-01T04:07:58;26.50;53.90
39483;DHT22;25682;48.438;1.482;2022-08-01T04:10:25;26.50;53.90
39483;DHT22;25682;48.438;1.482;2022-08-01T04:12:51;26.50;53.90
39483;DHT22;25682;48.438;1.482;2022-08-01T04:15:17;26.50;53.90
39483;DHT22;25682;48.438;1.482;2022-08-01T04:17:43;26.50;53.90
39483;DHT22;25682;48.438;1.482;2022-08-01T04:20:09;26.50;54.50
39483;DHT22;25682;48.438;1.482;2022-08-01T04:22:36;26.50;53.90
39483;DHT22;25682;48.438;1.482;2022-08-01T04:25:04;26.50;53.90
39483;DHT22;25682;48.438;1.482;2022-08-01T04:27:37;26.50;53.90
39483;DHT22;25682;48.438;1.482;2022-08-01T04:30:04;26.50;53.90
39483;DHT22;25682;48.438;1.482;2022-08-01T04:32:34;26.50;53.80
39483;DHT22;25682;48.438;1.482;2022-08-01T04:35:04;26.50;53.90
39483;DHT22;25682;48.438;1.482;2022-08-01T04:37:31;26.50;53.90
39483;DHT22;25682;48.438;1.482;2022-08-01T04:39:57;26.50;53.90
39483;DHT22;25682;48.438;1.482;2022-08-01T04:42:23;26.50;53.90
39483;DHT22;25682;48.438;1.482;2022-08-01T04:44:50;26.50;54.00
39483;DHT22;25682;48.438;1.482;2022-08-01T04:47:16;26.50;54.00
39483;DHT22;25682;48.438;1.482;2022-08-01T04:49:42;26.40;54.00
39483;DHT22;25682;48.438;1.482;2022-08-01T04:52:08;26.50;54.10
39483;DHT22;25682;48.438;1.482;2022-08-01T04:54:35;26.50;54.10
39483;DHT22;25682;48.438;1.482;2022-08-01T04:57:05;26.50;54.10
39483;DHT22;25682;48.438;1.482;2022-08-01T04:59:32;26.50;54.10
39483;DHT22;25682;48.438;1.482;2022-08-01T05:02:08;26.50;54.10
39483;DHT22;25682;48.438;1.482;2022-08-01T05:04:35;26.40;54.10
39483;DHT22;25682;48.438;1.482;2022-08-01T05:07:01;26.40;54.20
39483;DHT22;25682;48.438;1.482;2022-08-01T05:09:27;26.40;54.20
39483;DHT22;25682;48.438;1.482;2022-08-01T05:11:53;26.50;54.20
39483;DHT22;25682;48.438;1.482;2022-08-01T05:14:18;26.40;54.20
39483;DHT22;25682;48.438;1.482;2022-08-01T05:16:44;26.40;54.20
39483;DHT22;25682;48.438;1.482;2022-08-01T05:19:11;26.40;54.20
39483;DHT22;25682;48.438;1.482;2022-08-01T05:21:37;26.40;54.20
39483;DHT22;25682;48.438;1.482;2022-08-01T05:24:04;26.40;54.20
39483;DHT22;25682;48.438;1.482;2022-08-01T05:26:30;26.40;54.20
39483;DHT22;25682;48.438;1.482;2022-08-01T05:28:56;26.40;54.20
39483;DHT22;25682;48.438;1.482;2022-08-01T05:31:22;26.40;54.20
39483;DHT22;25682;48.438;1.482;2022-08-01T05:33:47;26.40;54.30
39483;DHT22;25682;48.438;1.482;2022-08-01T05:36:13;26.50;54.30
39483;DHT22;25682;48.438;1.482;2022-08-01T05:38:38;26.50;54.30
39483;DHT22;25682;48.438;1.482;2022-08-01T05:41:04;26.40;54.20
39483;DHT22;25682;48.438;1.482;2022-08-01T05:43:30;26.40;54.20
39483;DHT22;25682;48.438;1.482;2022-08-01T05:45:56;26.50;54.30
39483;DHT22;25682;48.438;1.482;2022-08-01T05:48:21;26.50;54.30
39483;DHT22;25682;48.438;1.482;2022-08-01T05:50:47;26.50;54.20
39483;DHT22;25682;48.438;1.482;2022-08-01T05:53:13;26.50;54.20
39483;DHT22;25682;48.438;1.482;2022-08-01T05:55:39;26.50;54.20
39483;DHT22;25682;48.438;1.482;2022-08-01T05:58:04;26.50;54.20
39483;DHT22;25682;48.438;1.482;2022-08-01T06:00:30;26.50;54.30
39483;DHT22;25682;48.438;1.482;2022-08-01T06:02:56;26.50;54.20
39483;DHT22;25682;48.438;1.482;2022-08-01T06:05:22;26.50;54.20
39483;DHT22;25682;48.438;1.482;2022-08-01T06:07:47;26.50;54.20
39483;DHT22;25682;48.438;1.482;2022-08-01T06:10:13;26.50;54.20
39483;DHT22;25682;48.438;1.482;2022-08-01T06:12:39;26.50;54.30
39483;DHT22;25682;48.438;1.482;2022-08-01T06:15:05;26.40;54.50
39483;DHT22;25682;48.438;1.482;2022-08-01T06:17:31;26.40;54.50
39483;DHT22;25682;48.438;1.482;2022-08-01T06:19:57;26.50;54.40
39483;DHT22;25682;48.438;1.482;2022-08-01T06:22:23;26.60;54.20
39483;DHT22;25682;48.438;1.482;2022-08-01T06:24:48;26.70;54.10
39483;DHT22;25682;48.438;1.482;2022-08-01T06:27:14;26.80;54.10
39483;DHT22;25682;48.438;1.482;2022-08-01T06:29:39;26.80;54.00
39483;DHT22;25682;48.438;1.482;2022-08-01T06:32:05;26.90;54.10
39483;DHT22;25682;48.438;1.482;2022-08-01T06:34:31;26.90;54.20
39483;DHT22;25682;48.438;1.482;2022-08-01T06:36:57;27.00;54.30
39483;DHT22;25682;48.438;1.482;2022-08-01T06:39:23;27.00;54.10
39483;DHT22;25682;48.438;1.482;2022-08-01T06:41:48;27.00;54.00
39483;DHT22;25682;48.438;1.482;2022-08-01T06:44:14;27.10;54.00
39483;DHT22;25682;48.438;1.482;2022-08-01T06:46:39;27.10;54.00
39483;DHT22;25682;48.438;1.482;2022-08-01T06:49:05;27.10;53.90
39483;DHT22;25682;48.438;1.482;2022-08-01T06:51:31;27.10;54.00
39483;DHT22;25682;48.438;1.482;2022-08-01T06:53:56;27.10;53.90
39483;DHT22;25682;48.438;1.482;2022-08-01T06:56:22;27.20;53.90
39483;DHT22;25682;48.438;1.482;2022-08-01T06:58:49;27.20;53.90
39483;DHT22;25682;48.438;1.482;2022-08-01T07:01:15;27.30;53.80
39483;DHT22;25682;48.438;1.482;2022-08-01T07:03:41;27.30;53.80
39483;DHT22;25682;48.438;1.482;2022-08-01T07:06:07;27.30;53.60
39483;DHT22;25682;48.438;1.482;2022-08-01T07:08:33;27.30;53.70
39483;DHT22;25682;48.438;1.482;2022-08-01T07:10:59;27.40;53.80
39483;DHT22;25682;48.438;1.482;2022-08-01T07:13:28;27.40;53.80
39483;DHT22;25682;48.438;1.482;2022-08-01T07:15:56;27.40;54.30
39483;DHT22;25682;48.438;1.482;2022-08-01T07:18:22;27.40;53.60
39483;DHT22;25682;48.438;1.482;2022-08-01T07:20:48;27.40;53.50
39483;DHT22;25682;48.438;1.482;2022-08-01T07:23:14;27.50;53.50
39483;DHT22;25682;48.438;1.482;2022-08-01T07:25:39;27.50;53.60
39483;DHT22;25682;48.438;1.482;2022-08-01T07:28:08;27.50;53.60
39483;DHT22;25682;48.438;1.482;2022-08-01T07:30:34;27.50;53.40
39483;DHT22;25682;48.438;1.482;2022-08-01T07:33:01;27.50;53.30
39483;DHT22;25682;48.438;1.482;2022-08-01T07:35:27;27.50;53.40
39483;DHT22;25682;48.438;1.482;2022-08-01T07:37:52;27.50;53.70
39483;DHT22;25682;48.438;1.482;2022-08-01T07:40:18;27.40;53.20
39483;DHT22;25682;48.438;1.482;2022-08-01T07:42:44;27.10;53.20
39483;DHT22;25682;48.438;1.482;2022-08-01T07:45:11;26.90;53.40
39483;DHT22;25682;48.438;1.482;2022-08-01T07:47:37;26.90;53.50
39483;DHT22;25682;48.438;1.482;2022-08-01T07:50:04;26.90;53.40
39483;DHT22;25682;48.438;1.482;2022-08-01T07:52:30;27.00;53.20
39483;DHT22;25682;48.438;1.482;2022-08-01T07:54:56;27.10;53.30
39483;DHT22;25682;48.438;1.482;2022-08-01T07:57:23;27.20;53.10
39483;DHT22;25682;48.438;1.482;2022-08-01T07:59:49;27.30;53.10
39483;DHT22;25682;48.438;1.482;2022-08-01T08:02:14;27.30;53.70
39483;DHT22;25682;48.438;1.482;2022-08-01T08:04:41;27.40;53.00
39483;DHT22;25682;48.438;1.482;2022-08-01T08:07:06;27.40;52.90
39483;DHT22;25682;48.438;1.482;2022-08-01T08:09:32;27.40;52.80
39483;DHT22;25682;48.438;1.482;2022-08-01T08:11:58;27.40;53.00
39483;DHT22;25682;48.438;1.482;2022-08-01T08:14:23;27.50;53.10
39483;DHT22;25682;48.438;1.482;2022-08-01T08:16:50;27.50;53.10
39483;DHT22;25682;48.438;1.482;2022-08-01T08:19:16;27.50;53.20
39483;DHT22;25682;48.438;1.482;2022-08-01T08:21:42;27.60;53.00
39483;DHT22;25682;48.438;1.482;2022-08-01T08:24:09;27.60;52.90
39483;DHT22;25682;48.438;1.482;2022-08-01T08:26:57;27.60;52.80
39483;DHT22;25682;48.438;1.482;2022-08-01T08:29:24;27.60;52.80
39483;DHT22;25682;48.438;1.482;2022-08-01T08:31:52;27.60;52.90
39483;DHT22;25682;48.438;1.482;2022-08-01T08:34:18;27.60;52.90
39483;DHT22;25682;48.438;1.482;2022-08-01T08:36:43;27.60;52.70
39483;DHT22;25682;48.438;1.482;2022-08-01T08:39:09;27.70;52.80
39483;DHT22;25682;48.438;1.482;2022-08-01T08:41:35;27.70;52.80
39483;DHT22;25682;48.438;1.482;2022-08-01T08:44:06;27.70;52.50
39483;DHT22;25682;48.438;1.482;2022-08-01T08:46:32;27.70;52.40
39483;DHT22;25682;48.438;1.482;2022-08-01T08:48:59;27.70;52.20
39483;DHT22;25682;48.438;1.482;2022-08-01T08:51:30;27.70;52.10
39483;DHT22;25682;48.438;1.482;2022-08-01T08:53:57;27.70;52.10
39483;DHT22;25682;48.438;1.482;2022-08-01T08:56:24;27.80;52.00
39483;DHT22;25682;48.438;1.482;2022-08-01T08:58:51;27.70;51.90
39483;DHT22;25682;48.438;1.482;2022-08-01T09:01:17;27.70;51.90
39483;DHT22;25682;48.438;1.482;2022-08-01T09:03:43;27.80;51.90
39483;DHT22;25682;48.438;1.482;2022-08-01T09:06:09;27.80;51.90
39483;DHT22;25682;48.438;1.482;2022-08-01T09:08:35;27.80;51.80
39483;DHT22;25682;48.438;1.482;2022-08-01T09:11:01;27.80;51.80
39483;DHT22;25682;48.438;1.482;2022-08-01T09:13:28;27.80;51.80
39483;DHT22;25682;48.438;1.482;2022-08-01T09:15:55;27.70;51.70
39483;DHT22;25682;48.438;1.482;2022-08-01T09:18:36;27.80;51.70
39483;DHT22;25682;48.438;1.482;2022-08-01T09:23:45;27.80;51.50
39483;DHT22;25682;48.438;1.482;2022-08-01T09:26:13;27.80;51.40
39483;DHT22;25682;48.438;1.482;2022-08-01T09:28:39;27.80;51.60
39483;DHT22;25682;48.438;1.482;2022-08-01T09:31:10;27.80;51.60
39483;DHT22;25682;48.438;1.482;2022-08-01T09:33:58;27.80;51.50
39483;DHT22;25682;48.438;1.482;2022-08-01T09:36:42;27.80;51.50
39483;DHT22;25682;48.438;1.482;2022-08-01T09:39:13;27.80;52.30
39483;DHT22;25682;48.438;1.482;2022-08-01T09:41:39;27.90;51.70
39483;DHT22;25682;48.438;1.482;2022-08-01T09:44:05;27.90;51.50
39483;DHT22;25682;48.438;1.482;2022-08-01T09:46:30;27.90;51.30
39483;DHT22;25682;48.438;1.482;2022-08-01T09:49:01;27.90;51.30
39483;DHT22;25682;48.438;1.482;2022-08-01T09:51:29;27.90;51.20
39483;DHT22;25682;48.438;1.482;2022-08-01T09:53:55;27.90;51.20
39483;DHT22;25682;48.438;1.482;2022-08-01T09:56:22;27.90;51.20
39483;DHT22;25682;48.438;1.482;2022-08-01T09:58:53;27.90;51.20
39483;DHT22;25682;48.438;1.482;2022-08-01T10:01:21;27.90;52.00
39483;DHT22;25682;48.438;1.482;2022-08-01T10:04:13;27.90;51.30
39483;DHT22;25682;48.438;1.482;2022-08-01T10:06:41;27.90;51.30
39483;DHT22;25682;48.438;1.482;2022-08-01T10:09:11;27.90;51.30
39483;DHT22;25682;48.438;1.482;2022-08-01T10:11:39;27.90;51.30
39483;DHT22;25682;48.438;1.482;2022-08-01T10:14:07;27.90;51.30
39483;DHT22;25682;48.438;1.482;2022-08-01T10:16:34;27.90;51.20
39483;DHT22;25682;48.438;1.482;2022-08-01T10:19:02;28.00;51.20
39483;DHT22;25682;48.438;1.482;2022-08-01T10:21:32;27.90;51.30
39483;DHT22;25682;48.438;1.482;2022-08-01T10:23:58;27.90;51.90
39483;DHT22;25682;48.438;1.482;2022-08-01T10:26:26;27.90;51.60
39483;DHT22;25682;48.438;1.482;2022-08-01T10:28:54;28.00;51.40
39483;DHT22;25682;48.438;1.482;2022-08-01T10:31:20;28.00;51.50
39483;DHT22;25682;48.438;1.482;2022-08-01T10:33:46;28.00;51.80
39483;DHT22;25682;48.438;1.482;2022-08-01T10:36:13;28.00;51.80
39483;DHT22;25682;48.438;1.482;2022-08-01T10:38:39;28.00;51.70
39483;DHT22;25682;48.438;1.482;2022-08-01T10:41:05;28.00;51.90
39483;DHT22;25682;48.438;1.482;2022-08-01T10:43:31;28.00;52.10
39483;DHT22;25682;48.438;1.482;2022-08-01T10:45:57;28.10;52.00
39483;DHT22;25682;48.438;1.482;2022-08-01T10:48:55;28.00;52.20
39483;DHT22;25682;48.438;1.482;2022-08-01T10:51:22;28.10;52.70
39483;DHT22;25682;48.438;1.482;2022-08-01T10:53:53;28.00;52.60
39483;DHT22;25682;48.438;1.482;2022-08-01T10:56:19;28.00;52.80
39483;DHT22;25682;48.438;1.482;2022-08-01T10:58:47;28.00;52.30
39483;DHT22;25682;48.438;1.482;2022-08-01T11:01:14;28.00;52.10
39483;DHT22;25682;48.438;1.482;2022-08-01T11:03:45;28.10;52.30
39483;DHT22;25682;48.438;1.482;2022-08-01T11:06:34;28.10;52.60
39483;DHT22;25682;48.438;1.482;2022-08-01T11:14:23;28.10;52.10
39483;DHT22;25682;48.438;1.482;2022-08-01T11:16:48;28.10;52.50
39483;DHT22;25682;48.438;1.482;2022-08-01T11:19:14;28.10;52.40
39483;DHT22;25682;48.438;1.482;2022-08-01T11:27:24;28.20;52.40
39483;DHT22;25682;48.438;1.482;2022-08-01T11:32:49;28.20;52.10
39483;DHT22;25682;48.438;1.482;2022-08-01T11:35:16;28.20;52.40
39483;DHT22;25682;48.438;1.482;2022-08-01T11:37:42;28.10;52.50
39483;DHT22;25682;48.438;1.482;2022-08-01T11:40:22;28.10;52.30
39483;DHT22;25682;48.438;1.482;2022-08-01T11:42:49;28.20;52.40
39483;DHT22;25682;48.438;1.482;2022-08-01T11:45:15;28.10;52.10
39483;DHT22;25682;48.438;1.482;2022-08-01T11:47:50;28.10;52.30
39483;DHT22;25682;48.438;1.482;2022-08-01T11:50:33;28.20;52.00
39483;DHT22;25682;48.438;1.482;2022-08-01T11:53:04;28.20;52.00
39483;DHT22;25682;48.438;1.482;2022-08-01T11:55:30;28.20;52.10
39483;DHT22;25682;48.438;1.482;2022-08-01T11:58:04;28.20;52.20
39483;DHT22;25682;48.438;1.482;2022-08-01T12:00:31;28.20;52.10
39483;DHT22;25682;48.438;1.482;2022-08-01T12:03:04;28.20;52.20
39483;DHT22;25682;48.438;1.482;2022-08-01T12:05:31;28.20;52.00
39483;DHT22;25682;48.438;1.482;2022-08-01T12:07:59;28.20;51.90
39483;DHT22;25682;48.438;1.482;2022-08-01T12:10:29;28.20;52.10
39483;DHT22;25682;48.438;1.482;2022-08-01T12:13:03;28.20;52.00
39483;DHT22;25682;48.438;1.482;2022-08-01T12:15:34;28.20;51.70
39483;DHT22;25682;48.438;1.482;2022-08-01T12:18:01;28.20;51.50
39483;DHT22;25682;48.438;1.482;2022-08-01T12:20:30;28.20;51.80
39483;DHT22;25682;48.438;1.482;2022-08-01T12:23:05;28.20;51.90
39483;DHT22;25682;48.438;1.482;2022-08-01T12:25:31;28.20;52.10
39483;DHT22;25682;48.438;1.482;2022-08-01T12:28:06;28.20;52.10
39483;DHT22;25682;48.438;1.482;2022-08-01T12:30:33;28.20;51.90
39483;DHT22;25682;48.438;1.482;2022-08-01T12:33:04;28.20;52.00
39483;DHT22;25682;48.438;1.482;2022-08-01T12:35:30;28.20;51.90
39483;DHT22;25682;48.438;1.482;2022-08-01T12:38:06;28.20;52.00
39483;DHT22;25682;48.438;1.482;2022-08-01T12:40:34;28.20;52.10
39483;DHT22;25682;48.438;1.482;2022-08-01T12:43:05;28.20;51.90
39483;DHT22;25682;48.438;1.482;2022-08-01T12:45:38;28.20;51.30
39483;DHT22;25682;48.438;1.482;2022-08-01T12:48:15;28.20;50.70
39483;DHT22;25682;48.438;1.482;2022-08-01T12:50:43;28.30;50.80
39483;DHT22;25682;48.438;1.482;2022-08-01T12:53:09;28.30;51.20
39483;DHT22;25682;48.438;1.482;2022-08-01T12:55:44;28.30;52.00
39483;DHT22;25682;48.438;1.482;2022-08-01T12:58:12;28.30;51.30
39483;DHT22;25682;48.438;1.482;2022-08-01T13:00:39;28.30;51.90
39483;DHT22;25682;48.438;1.482;2022-08-01T13:03:18;28.30;51.80
39483;DHT22;25682;48.438;1.482;2022-08-01T13:05:50;28.30;51.90
39483;DHT22;25682;48.438;1.482;2022-08-01T13:08:18;28.30;51.80
39483;DHT22;25682;48.438;1.482;2022-08-01T13:10:44;28.30;52.00
39483;DHT22;25682;48.438;1.482;2022-08-01T13:13:11;28.30;52.30
39483;DHT22;25682;48.438;1.482;2022-08-01T13:15:39;28.30;52.40
39483;DHT22;25682;48.438;1.482;2022-08-01T13:18:27;28.30;52.50
39483;DHT22;25682;48.438;1.482;2022-08-01T13:21:21;28.30;52.70
39483;DHT22;25682;48.438;1.482;2022-08-01T13:24:10;28.30;52.60
39483;DHT22;25682;48.438;1.482;2022-08-01T13:26:50;28.40;52.70
39483;DHT22;25682;48.438;1.482;2022-08-01T13:29:16;28.30;52.90
39483;DHT22;25682;48.438;1.482;2022-08-01T13:31:43;28.30;52.90
39483;DHT22;25682;48.438;1.482;2022-08-01T13:34:09;28.30;51.30
39483;DHT22;25682;48.438;1.482;2022-08-01T13:36:39;28.30;51.20
39483;DHT22;25682;48.438;1.482;2022-08-01T13:39:05;28.30;51.30
39483;DHT22;25682;48.438;1.482;2022-08-01T13:41:50;28.30;51.80
39483;DHT22;25682;48.438;1.482;2022-08-01T13:44:16;28.30;51.30
39483;DHT22;25682;48.438;1.482;2022-08-01T13:46:42;28.30;49.60
39483;DHT22;25682;48.438;1.482;2022-08-01T13:49:09;28.20;49.00
39483;DHT22;25682;48.438;1.482;2022-08-01T13:51:36;28.10;49.40
39483;DHT22;25682;48.438;1.482;2022-08-01T13:54:02;28.00;49.50
39483;DHT22;25682;48.438;1.482;2022-08-01T13:56:28;28.10;49.70
39483;DHT22;25682;48.438;1.482;2022-08-01T13:58:55;28.20;50.00
39483;DHT22;25682;48.438;1.482;2022-08-01T14:01:21;28.20;50.00
39483;DHT22;25682;48.438;1.482;2022-08-01T14:03:47;28.30;50.10
39483;DHT22;25682;48.438;1.482;2022-08-01T14:06:13;28.20;49.60
39483;DHT22;25682;48.438;1.482;2022-08-01T14:08:41;28.10;49.30
39483;DHT22;25682;48.438;1.482;2022-08-01T14:11:08;28.20;49.60
39483;DHT22;25682;48.438;1.482;2022-08-01T14:13:33;28.20;50.10
39483;DHT22;25682;48.438;1.482;2022-08-01T14:15:59;28.20;50.10
39483;DHT22;25682;48.438;1.482;2022-08-01T14:18:25;28.20;50.50
39483;DHT22;25682;48.438;1.482;2022-08-01T14:20:51;28.20;50.70
39483;DHT22;25682;48.438;1.482;2022-08-01T14:23:17;28.20;51.40
39483;DHT22;25682;48.438;1.482;2022-08-01T14:25:43;28.30;51.40
39483;DHT22;25682;48.438;1.482;2022-08-01T14:28:09;28.30;51.30
39483;DHT22;25682;48.438;1.482;2022-08-01T14:30:35;28.30;51.20
39483;DHT22;25682;48.438;1.482;2022-08-01T14:33:01;28.30;51.30
39483;DHT22;25682;48.438;1.482;2022-08-01T14:35:27;28.30;51.20
39483;DHT22;25682;48.438;1.482;2022-08-01T14:37:52;28.30;51.10
39483;DHT22;25682;48.438;1.482;2022-08-01T14:40:18;28.30;51.30
39483;DHT22;25682;48.438;1.482;2022-08-01T14:42:44;28.30;51.10
39483;DHT22;25682;48.438;1.482;2022-08-01T14:45:11;28.30;51.30
39483;DHT22;25682;48.438;1.482;2022-08-01T14:47:38;28.30;51.50
39483;DHT22;25682;48.438;1.482;2022-08-01T14:50:06;28.30;51.40
39483;DHT22;25682;48.438;1.482;2022-08-01T14:52:33;28.30;50.40
39483;DHT22;25682;48.438;1.482;2022-08-01T14:54:58;28.20;49.60
39483;DHT22;25682;48.438;1.482;2022-08-01T14:57:24;28.20;49.00
39483;DHT22;25682;48.438;1.482;2022-08-01T14:59:50;28.10;48.70
39483;DHT22;25682;48.438;1.482;2022-08-01T15:02:15;28.00;48.50
39483;DHT22;25682;48.438;1.482;2022-08-01T15:04:43;28.00;48.50
39483;DHT22;25682;48.438;1.482;2022-08-01T15:07:09;28.10;48.80
39483;DHT22;25682;48.438;1.482;2022-08-01T15:09:36;28.00;48.60
39483;DHT22;25682;48.438;1.482;2022-08-01T15:12:01;28.00;48.60
39483;DHT22;25682;48.438;1.482;2022-08-01T15:14:27;28.00;48.40
39483;DHT22;25682;48.438;1.482;2022-08-01T15:17:11;28.00;48.60
39483;DHT22;25682;48.438;1.482;2022-08-01T15:19:37;28.00;48.70
39483;DHT22;25682;48.438;1.482;2022-08-01T15:22:03;28.10;48.70
39483;DHT22;25682;48.438;1.482;2022-08-01T15:24:29;28.10;49.00
39483;DHT22;25682;48.438;1.482;2022-08-01T15:26:54;28.20;49.10
39483;DHT22;25682;48.438;1.482;2022-08-01T15:29:20;28.20;49.10
39483;DHT22;25682;48.438;1.482;2022-08-01T15:31:45;28.20;49.20
39483;DHT22;25682;48.438;1.482;2022-08-01T15:34:11;28.30;49.40
39483;DHT22;25682;48.438;1.482;2022-08-01T15:36:37;28.30;49.80
39483;DHT22;25682;48.438;1.482;2022-08-01T15:39:03;28.30;49.90
39483;DHT22;25682;48.438;1.482;2022-08-01T15:41:28;28.30;50.10
39483;DHT22;25682;48.438;1.482;2022-08-01T15:43:54;28.30;50.20
39483;DHT22;25682;48.438;1.482;2022-08-01T15:46:20;28.30;50.30
39483;DHT22;25682;48.438;1.482;2022-08-01T15:48:45;28.30;50.30
39483;DHT22;25682;48.438;1.482;2022-08-01T15:51:11;28.30;50.30
39483;DHT22;25682;48.438;1.482;2022-08-01T15:53:36;28.30;50.20
39483;DHT22;25682;48.438;1.482;2022-08-01T15:56:02;28.30;50.10